Chapleau, Canada
Current Conditions -  °F | °C
As of 6:00 AM on Friday 28 Nov 2014 (Local Time) from CYLD Reporting Station
Clear Clear  
Wind Chill: -22°   Ceiling: Unl
Heat Index: -22°   Visibility: 15mi
Dew Point: -31°   Wind: 0mph
Humidity: 63%   Direction: NA
Pressure: 30.15"   Gusts: NA
Location:  47.84°N, 83.4°W
Report Text: CYLD 281100Z 00000KT 15SM SKC M30/M35 A3015 RMK SLP269
Loading
Personal Weather Stations






























Interactive Weather Map New forecast layout! Learn more

10-Day Weather Forecast

Advertisements
Track Severe Weather on mobile